sensor_id;sensor_type;location;lat;lon;timestamp;pressure;altitude;pressure_sealevel;temperature;humidity
40596;BME280;26304;48.794;9.820;2023-03-22T00:01:33;96152.88;;;17.77;49.33
40596;BME280;26304;48.794;9.820;2023-03-22T00:07:16;96150.63;;;17.76;49.17
40596;BME280;26304;48.794;9.820;2023-03-22T00:13:00;96157.34;;;17.73;49.19
40596;BME280;26304;48.794;9.820;2023-03-22T00:18:43;96160.72;;;17.70;49.73
40596;BME280;26304;48.794;9.820;2023-03-22T00:24:25;96167.84;;;17.70;49.04
40596;BME280;26304;48.794;9.820;2023-03-22T00:30:10;96157.72;;;17.68;48.54
40596;BME280;26304;48.794;9.820;2023-03-22T00:35:54;96151.66;;;17.64;48.99
40596;BME280;26304;48.794;9.820;2023-03-22T00:41:38;96148.69;;;17.66;48.90
40596;BME280;26304;48.794;9.820;2023-03-22T00:47:22;96149.03;;;17.64;48.51
40596;BME280;26304;48.794;9.820;2023-03-22T00:53:04;96137.03;;;17.63;48.93
40596;BME280;26304;48.794;9.820;2023-03-22T00:58:46;96133.63;;;17.63;49.00
40596;BME280;26304;48.794;9.820;2023-03-22T01:04:31;96137.00;;;17.59;49.00
40596;BME280;26304;48.794;9.820;2023-03-22T01:10:16;96130.63;;;17.57;49.04
40596;BME280;26304;48.794;9.820;2023-03-22T01:15:58;96130.22;;;17.55;49.03
40596;BME280;26304;48.794;9.820;2023-03-22T01:21:42;96125.69;;;17.52;48.47
40596;BME280;26304;48.794;9.820;2023-03-22T01:27:24;96124.59;;;17.53;48.59
40596;BME280;26304;48.794;9.820;2023-03-22T01:33:07;96122.31;;;17.51;48.66
40596;BME280;26304;48.794;9.820;2023-03-22T01:38:51;96109.91;;;17.48;48.74
40596;BME280;26304;48.794;9.820;2023-03-22T01:44:35;96108.81;;;17.49;48.76
40596;BME280;26304;48.794;9.820;2023-03-22T01:50:18;96103.53;;;17.46;48.61
40596;BME280;26304;48.794;9.820;2023-03-22T01:56:03;96093.78;;;17.42;48.71
40596;BME280;26304;48.794;9.820;2023-03-22T02:01:45;96087.00;;;17.41;48.61
40596;BME280;26304;48.794;9.820;2023-03-22T02:07:28;96092.25;;;17.41;48.71
40596;BME280;26304;48.794;9.820;2023-03-22T02:13:24;96085.88;;;17.42;48.73
40596;BME280;26304;48.794;9.820;2023-03-22T02:19:36;96076.47;;;17.38;48.14
40596;BME280;26304;48.794;9.820;2023-03-22T02:25:36;96067.09;;;17.40;48.40
40596;BME280;26304;48.794;9.820;2023-03-22T02:31:42;96070.06;;;17.35;48.18
40596;BME280;26304;48.794;9.820;2023-03-22T02:37:42;96059.19;;;17.33;48.42
40596;BME280;26304;48.794;9.820;2023-03-22T02:43:34;96057.69;;;17.32;47.87
40596;BME280;26304;48.794;9.820;2023-03-22T02:49:23;96052.03;;;17.30;48.13
40596;BME280;26304;48.794;9.820;2023-03-22T02:55:12;96059.56;;;17.28;48.42
40596;BME280;26304;48.794;9.820;2023-03-22T03:01:00;96056.53;;;17.26;48.21
40596;BME280;26304;48.794;9.820;2023-03-22T03:06:47;96055.41;;;17.23;47.93
40596;BME280;26304;48.794;9.820;2023-03-22T03:12:34;96050.88;;;17.24;48.21
40596;BME280;26304;48.794;9.820;2023-03-22T03:18:27;96052.00;;;17.23;47.97
40596;BME280;26304;48.794;9.820;2023-03-22T03:24:20;96053.13;;;17.22;48.33
40596;BME280;26304;48.794;9.820;2023-03-22T03:30:07;96053.50;;;17.17;48.23
40596;BME280;26304;48.794;9.820;2023-03-22T03:35:54;96052.47;;;17.39;46.99
40596;BME280;26304;48.794;9.820;2023-03-22T03:41:41;96058.47;;;17.36;47.57
40596;BME280;26304;48.794;9.820;2023-03-22T03:47:27;96062.88;;;17.21;47.41
40596;BME280;26304;48.794;9.820;2023-03-22T03:53:11;96069.69;;;17.30;47.52
40596;BME280;26304;48.794;9.820;2023-03-22T03:58:54;96064.41;;;17.26;47.20
40596;BME280;26304;48.794;9.820;2023-03-22T04:04:36;96070.38;;;17.19;47.68
40596;BME280;26304;48.794;9.820;2023-03-22T04:10:20;96066.63;;;17.20;47.63
40596;BME280;26304;48.794;9.820;2023-03-22T04:16:02;96062.88;;;17.18;47.76
40596;BME280;26304;48.794;9.820;2023-03-22T04:21:45;96059.84;;;17.16;47.70
40596;BME280;26304;48.794;9.820;2023-03-22T04:27:29;96063.22;;;17.13;47.58
40596;BME280;26304;48.794;9.820;2023-03-22T04:33:11;96062.13;;;17.21;47.80
40596;BME280;26304;48.794;9.820;2023-03-22T04:38:55;96063.22;;;17.13;48.05
40596;BME280;26304;48.794;9.820;2023-03-22T04:44:39;96051.63;;;17.17;47.62
40596;BME280;26304;48.794;9.820;2023-03-22T04:50:21;96060.63;;;17.20;47.64
40596;BME280;26304;48.794;9.820;2023-03-22T04:56:05;96055.38;;;17.20;47.39
40596;BME280;26304;48.794;9.820;2023-03-22T05:01:50;96062.09;;;17.14;48.29
40596;BME280;26304;48.794;9.820;2023-03-22T05:07:32;96061.41;;;17.24;47.54
40596;BME280;26304;48.794;9.820;2023-03-22T05:13:14;96061.09;;;17.43;48.50
40596;BME280;26304;48.794;9.820;2023-03-22T05:18:58;96057.38;;;17.52;48.61
40596;BME280;26304;48.794;9.820;2023-03-22T05:24:42;96051.78;;;17.57;49.04
40596;BME280;26304;48.794;9.820;2023-03-22T05:30:24;96048.75;;;17.51;48.88
40596;BME280;26304;48.794;9.820;2023-03-22T05:36:09;96045.00;;;17.56;49.09
40596;BME280;26304;48.794;9.820;2023-03-22T05:41:52;96047.22;;;17.47;48.31
40596;BME280;26304;48.794;9.820;2023-03-22T05:47:34;96052.47;;;17.43;48.30
40596;BME280;26304;48.794;9.820;2023-03-22T05:53:20;96035.97;;;17.42;48.56
40596;BME280;26304;48.794;9.820;2023-03-22T05:59:03;96038.97;;;17.45;48.20
40596;BME280;26304;48.794;9.820;2023-03-22T06:04:45;96030.72;;;17.50;48.49
40596;BME280;26304;48.794;9.820;2023-03-22T06:10:29;96026.97;;;17.51;49.00
40596;BME280;26304;48.794;9.820;2023-03-22T06:16:12;96018.00;;;17.66;49.07
40596;BME280;26304;48.794;9.820;2023-03-22T06:21:54;96013.09;;;17.54;49.65
40596;BME280;26304;48.794;9.820;2023-03-22T06:27:38;96012.34;;;17.64;49.27
40596;BME280;26304;48.794;9.820;2023-03-22T06:33:21;96016.13;;;17.63;49.89
40596;BME280;26304;48.794;9.820;2023-03-22T06:39:03;96020.19;;;17.42;49.89
40596;BME280;26304;48.794;9.820;2023-03-22T06:44:47;96024.72;;;17.49;49.35
40596;BME280;26304;48.794;9.820;2023-03-22T06:50:29;96022.47;;;17.48;49.13
40596;BME280;26304;48.794;9.820;2023-03-22T06:56:12;96031.44;;;17.47;48.69
40596;BME280;26304;48.794;9.820;2023-03-22T07:01:55;96032.56;;;17.42;48.84
40596;BME280;26304;48.794;9.820;2023-03-22T07:07:38;96048.69;;;17.40;49.03
40596;BME280;26304;48.794;9.820;2023-03-22T07:13:20;96049.44;;;17.37;48.65
40596;BME280;26304;48.794;9.820;2023-03-22T07:19:04;96047.16;;;17.36;48.98
40596;BME280;26304;48.794;9.820;2023-03-22T07:24:47;96057.31;;;17.37;49.15
40596;BME280;26304;48.794;9.820;2023-03-22T07:30:29;96043.44;;;17.40;48.64
40596;BME280;26304;48.794;9.820;2023-03-22T07:36:13;96038.97;;;17.45;48.67
40596;BME280;26304;48.794;9.820;2023-03-22T07:41:56;96037.44;;;17.43;48.61
40596;BME280;26304;48.794;9.820;2023-03-22T07:47:38;96040.13;;;17.51;48.39
40596;BME280;26304;48.794;9.820;2023-03-22T07:53:22;96041.97;;;17.47;48.02
40596;BME280;26304;48.794;9.820;2023-03-22T07:59:04;96045.00;;;17.56;48.54
40596;BME280;26304;48.794;9.820;2023-03-22T08:04:47;96047.28;;;17.61;48.14
40596;BME280;26304;48.794;9.820;2023-03-22T08:10:31;96050.63;;;17.58;47.91
40596;BME280;26304;48.794;9.820;2023-03-22T08:16:14;96062.28;;;17.60;47.78
40596;BME280;26304;48.794;9.820;2023-03-22T08:21:56;96056.66;;;17.58;48.04
40596;BME280;26304;48.794;9.820;2023-03-22T08:27:40;96064.56;;;17.62;48.01
40596;BME280;26304;48.794;9.820;2023-03-22T08:33:22;96069.81;;;17.62;47.54
40596;BME280;26304;48.794;9.820;2023-03-22T08:39:05;96064.19;;;17.67;47.48
40596;BME280;26304;48.794;9.820;2023-03-22T08:44:49;96057.81;;;17.65;47.57
40596;BME280;26304;48.794;9.820;2023-03-22T08:50:32;96059.69;;;17.68;47.26
40596;BME280;26304;48.794;9.820;2023-03-22T08:56:15;96064.56;;;17.69;47.86
40596;BME280;26304;48.794;9.820;2023-03-22T09:01:58;96062.31;;;17.68;47.32
40596;BME280;26304;48.794;9.820;2023-03-22T09:07:41;96056.31;;;17.67;47.24
40596;BME280;26304;48.794;9.820;2023-03-22T09:13:24;96044.28;;;17.66;47.64
40596;BME280;26304;48.794;9.820;2023-03-22T09:19:08;96042.03;;;17.68;46.95
40596;BME280;26304;48.794;9.820;2023-03-22T09:24:50;96039.06;;;17.73;47.39
40596;BME280;26304;48.794;9.820;2023-03-22T09:30:33;96039.78;;;17.74;47.63
40596;BME280;26304;48.794;9.820;2023-03-22T09:36:17;96034.56;;;17.77;46.95
40596;BME280;26304;48.794;9.820;2023-03-22T09:42:01;96032.31;;;17.79;46.79
40596;BME280;26304;48.794;9.820;2023-03-22T09:47:48;96019.91;;;17.84;47.17
40596;BME280;26304;48.794;9.820;2023-03-22T09:53:34;96022.16;;;17.82;46.97
40596;BME280;26304;48.794;9.820;2023-03-22T09:59:21;96026.31;;;17.86;47.02
40596;BME280;26304;48.794;9.820;2023-03-22T10:05:15;96009.38;;;17.84;47.34
40596;BME280;26304;48.794;9.820;2023-03-22T10:11:01;96005.28;;;17.90;47.51
40596;BME280;26304;48.794;9.820;2023-03-22T10:16:46;95994.03;;;17.93;47.45
40596;BME280;26304;48.794;9.820;2023-03-22T10:22:32;95998.53;;;17.96;47.21
40596;BME280;26304;48.794;9.820;2023-03-22T10:28:20;95999.28;;;17.93;47.04
40596;BME280;26304;48.794;9.820;2023-03-22T10:34:06;95990.28;;;18.01;46.63
40596;BME280;26304;48.794;9.820;2023-03-22T10:39:54;95983.53;;;18.00;46.64
40596;BME280;26304;48.794;9.820;2023-03-22T10:45:39;95971.09;;;17.90;46.65
40596;BME280;26304;48.794;9.820;2023-03-22T10:51:25;95964.00;;;17.90;46.59
40596;BME280;26304;48.794;9.820;2023-03-22T10:57:09;95965.13;;;18.14;46.78
40596;BME280;26304;48.794;9.820;2023-03-22T11:02:57;95958.69;;;18.30;46.55
40596;BME280;26304;48.794;9.820;2023-03-22T11:08:42;95957.59;;;18.24;46.80
40596;BME280;26304;48.794;9.820;2023-03-22T11:14:28;95941.03;;;18.23;46.94
40596;BME280;26304;48.794;9.820;2023-03-22T11:20:15;95953.47;;;18.23;46.90
40596;BME280;26304;48.794;9.820;2023-03-22T11:26:04;95953.44;;;18.26;46.51
40596;BME280;26304;48.794;9.820;2023-03-22T11:31:51;95954.19;;;18.12;46.72
40596;BME280;26304;48.794;9.820;2023-03-22T11:37:39;95942.19;;;18.26;47.27
40596;BME280;26304;48.794;9.820;2023-03-22T11:43:23;95936.16;;;18.18;47.56
40596;BME280;26304;48.794;9.820;2023-03-22T11:49:11;95931.66;;;18.11;47.05
40596;BME280;26304;48.794;9.820;2023-03-22T11:54:58;95929.03;;;18.11;44.85
40596;BME280;26304;48.794;9.820;2023-03-22T12:00:41;95916.63;;;18.12;46.91
40596;BME280;26304;48.794;9.820;2023-03-22T12:06:27;95910.63;;;18.08;46.71
40596;BME280;26304;48.794;9.820;2023-03-22T12:12:15;95917.00;;;18.14;46.13
40596;BME280;26304;48.794;9.820;2023-03-22T12:18:02;95894.78;;;18.33;46.46
40596;BME280;26304;48.794;9.820;2023-03-22T12:23:46;95892.56;;;18.24;46.15
40596;BME280;26304;48.794;9.820;2023-03-22T12:29:30;95875.22;;;18.38;46.40
40596;BME280;26304;48.794;9.820;2023-03-22T12:35:15;95885.72;;;18.52;46.45
40596;BME280;26304;48.794;9.820;2023-03-22T12:41:01;95880.81;;;18.58;46.28
40596;BME280;26304;48.794;9.820;2023-03-22T12:46:49;95877.44;;;18.61;46.13
40596;BME280;26304;48.794;9.820;2023-03-22T12:52:36;95878.16;;;18.68;46.19
40596;BME280;26304;48.794;9.820;2023-03-22T12:58:22;95860.06;;;18.74;46.21
40596;BME280;26304;48.794;9.820;2023-03-22T13:04:44;95841.25;;;18.76;45.93
40596;BME280;26304;48.794;9.820;2023-03-22T13:10:48;95852.16;;;18.85;45.91
40596;BME280;26304;48.794;9.820;2023-03-22T13:16:48;95839.72;;;18.85;45.09
40596;BME280;26304;48.794;9.820;2023-03-22T13:23:11;95832.94;;;18.92;44.98
40596;BME280;26304;48.794;9.820;2023-03-22T13:29:09;95832.56;;;18.90;43.87
40596;BME280;26304;48.794;9.820;2023-03-22T13:34:52;95822.38;;;18.92;42.10
40596;BME280;26304;48.794;9.820;2023-03-22T13:40:42;95823.88;;;18.96;41.33
40596;BME280;26304;48.794;9.820;2023-03-22T13:52:34;95802.22;;;19.27;41.94
40596;BME280;26304;48.794;9.820;2023-03-22T13:58:34;95809.34;;;19.30;41.74
40596;BME280;26304;48.794;9.820;2023-03-22T14:04:21;95797.59;;;19.38;41.88
40596;BME280;26304;48.794;9.820;2023-03-22T14:10:11;95785.84;;;19.50;41.46
40596;BME280;26304;48.794;9.820;2023-03-22T14:16:01;95788.88;;;19.48;41.43
40596;BME280;26304;48.794;9.820;2023-03-22T14:21:48;95782.41;;;19.53;40.99
40596;BME280;26304;48.794;9.820;2023-03-22T14:27:32;95777.47;;;19.58;41.53
40596;BME280;26304;48.794;9.820;2023-03-22T14:33:18;95776.22;;;19.74;41.75
40596;BME280;26304;48.794;9.820;2023-03-22T14:39:05;95776.41;;;19.52;42.22
40596;BME280;26304;48.794;9.820;2023-03-22T14:44:55;95767.38;;;19.53;42.01
40596;BME280;26304;48.794;9.820;2023-03-22T14:50:44;95773.81;;;19.49;41.98
40596;BME280;26304;48.794;9.820;2023-03-22T14:56:29;95771.47;;;19.58;41.71
40596;BME280;26304;48.794;9.820;2023-03-22T15:02:22;95767.66;;;19.63;41.55
40596;BME280;26304;48.794;9.820;2023-03-22T15:08:10;95764.88;;;19.81;41.70
40596;BME280;26304;48.794;9.820;2023-03-22T15:13:53;95755.91;;;19.71;42.35
40596;BME280;26304;48.794;9.820;2023-03-22T15:19:39;95756.63;;;19.71;41.66
40596;BME280;26304;48.794;9.820;2023-03-22T15:25:29;95760.78;;;19.76;41.28
40596;BME280;26304;48.794;9.820;2023-03-22T15:31:23;95737.84;;;19.69;41.43
40596;BME280;26304;48.794;9.820;2023-03-22T15:37:12;95728.72;;;19.77;40.72
40596;BME280;26304;48.794;9.820;2023-03-22T15:43:18;95739.66;;;19.76;40.72
40596;BME280;26304;48.794;9.820;2023-03-22T15:49:17;95740.41;;;19.80;40.25
40596;BME280;26304;48.794;9.820;2023-03-22T15:55:03;95735.13;;;19.76;40.51
40596;BME280;26304;48.794;9.820;2023-03-22T16:00:47;95730.63;;;19.77;40.30
40596;BME280;26304;48.794;9.820;2023-03-22T16:06:31;95743.25;;;19.51;39.17
40596;BME280;26304;48.794;9.820;2023-03-22T16:12:15;95736.25;;;19.75;38.52
40596;BME280;26304;48.794;9.820;2023-03-22T16:17:59;95740.50;;;19.66;39.50
40596;BME280;26304;48.794;9.820;2023-03-22T16:23:42;95740.50;;;19.66;39.25
40596;BME280;26304;48.794;9.820;2023-03-22T16:29:25;95747.09;;;19.85;39.07
40596;BME280;26304;48.794;9.820;2023-03-22T16:35:14;95747.38;;;19.98;39.13
40596;BME280;26304;48.794;9.820;2023-03-22T16:40:56;95747.16;;;20.16;39.59
40596;BME280;26304;48.794;9.820;2023-03-22T16:46:39;95748.06;;;20.02;40.02
40596;BME280;26304;48.794;9.820;2023-03-22T16:52:23;95756.69;;;20.06;39.90
40596;BME280;26304;48.794;9.820;2023-03-22T16:58:08;95766.63;;;19.94;40.06
40596;BME280;26304;48.794;9.820;2023-03-22T17:03:51;95770.44;;;19.90;40.30
40596;BME280;26304;48.794;9.820;2023-03-22T17:09:34;95768.94;;;19.89;40.42
40596;BME280;26304;48.794;9.820;2023-03-22T17:15:26;95779.88;;;19.87;40.53
40596;BME280;26304;48.794;9.820;2023-03-22T17:21:10;95787.06;;;19.83;40.35
40596;BME280;26304;48.794;9.820;2023-03-22T17:26:55;95790.84;;;19.82;40.39
40596;BME280;26304;48.794;9.820;2023-03-22T17:32:37;95794.66;;;19.77;40.42
40596;BME280;26304;48.794;9.820;2023-03-22T17:38:20;95796.16;;;19.75;40.59
40596;BME280;26304;48.794;9.820;2023-03-22T17:44:03;95805.59;;;19.76;40.34
40596;BME280;26304;48.794;9.820;2023-03-22T17:49:46;95798.44;;;19.76;40.49
40596;BME280;26304;48.794;9.820;2023-03-22T17:55:31;95800.31;;;19.76;40.27
40596;BME280;26304;48.794;9.820;2023-03-22T18:01:15;95808.97;;;19.76;40.33
40596;BME280;26304;48.794;9.820;2023-03-22T18:06:58;95807.47;;;19.72;42.14
40596;BME280;26304;48.794;9.820;2023-03-22T18:12:42;95810.41;;;19.85;41.05
40596;BME280;26304;48.794;9.820;2023-03-22T18:18:27;95807.09;;;19.73;41.25
40596;BME280;26304;48.794;9.820;2023-03-22T18:24:13;95812.91;;;19.54;41.39
40596;BME280;26304;48.794;9.820;2023-03-22T18:29:55;95810.25;;;19.57;41.26
40596;BME280;26304;48.794;9.820;2023-03-22T18:35:39;95813.19;;;19.67;41.38
40596;BME280;26304;48.794;9.820;2023-03-22T18:41:21;95814.34;;;19.62;42.02
40596;BME280;26304;48.794;9.820;2023-03-22T18:47:05;95815.47;;;19.65;41.73
40596;BME280;26304;48.794;9.820;2023-03-22T18:52:51;95821.13;;;19.63;42.24
40596;BME280;26304;48.794;9.820;2023-03-22T18:58:33;95815.09;;;19.66;42.13
40596;BME280;26304;48.794;9.820;2023-03-22T19:04:16;95810.94;;;19.65;42.21
40596;BME280;26304;48.794;9.820;2023-03-22T19:09:59;95808.69;;;19.64;42.44
40596;BME280;26304;48.794;9.820;2023-03-22T19:15:42;95809.06;;;19.66;42.78
40596;BME280;26304;48.794;9.820;2023-03-22T19:21:24;95804.56;;;19.63;41.59
40596;BME280;26304;48.794;9.820;2023-03-22T19:27:09;95809.94;;;19.52;41.71
40596;BME280;26304;48.794;9.820;2023-03-22T19:32:52;95802.06;;;19.48;41.09
40596;BME280;26304;48.794;9.820;2023-03-22T19:38:35;95807.72;;;19.43;40.49
40596;BME280;26304;48.794;9.820;2023-03-22T19:44:20;95799.44;;;19.45;40.92
40596;BME280;26304;48.794;9.820;2023-03-22T19:50:03;95802.47;;;19.43;41.38
40596;BME280;26304;48.794;9.820;2023-03-22T19:55:46;95801.00;;;19.38;40.89
40596;BME280;26304;48.794;9.820;2023-03-22T20:01:30;95797.47;;;19.07;41.05
40596;BME280;26304;48.794;9.820;2023-03-22T20:07:12;95798.13;;;19.18;41.16
40596;BME280;26304;48.794;9.820;2023-03-22T20:12:56;95789.09;;;19.19;41.52
40596;BME280;26304;48.794;9.820;2023-03-22T20:18:40;95794.38;;;19.19;40.69
40596;BME280;26304;48.794;9.820;2023-03-22T20:24:23;95794.38;;;19.19;39.80
40596;BME280;26304;48.794;9.820;2023-03-22T20:30:07;95795.16;;;19.16;39.96
40596;BME280;26304;48.794;9.820;2023-03-22T20:35:51;95787.69;;;19.04;40.04
40596;BME280;26304;48.794;9.820;2023-03-22T20:41:35;95792.16;;;19.11;40.23
40596;BME280;26304;48.794;9.820;2023-03-22T20:47:17;95788.13;;;18.95;40.02
40596;BME280;26304;48.794;9.820;2023-03-22T20:53:01;95788.56;;;18.79;39.80
40596;BME280;26304;48.794;9.820;2023-03-22T20:58:43;95784.44;;;18.78;40.33
40596;BME280;26304;48.794;9.820;2023-03-22T21:04:26;95786.56;;;19.01;40.68
40596;BME280;26304;48.794;9.820;2023-03-22T21:10:12;95787.63;;;19.11;40.03
40596;BME280;26304;48.794;9.820;2023-03-22T21:15:54;95792.91;;;19.15;40.15
40596;BME280;26304;48.794;9.820;2023-03-22T21:21:37;95790.66;;;19.13;40.32
40596;BME280;26304;48.794;9.820;2023-03-22T21:27:20;95794.81;;;19.11;40.56
40596;BME280;26304;48.794;9.820;2023-03-22T21:33:06;95791.44;;;19.10;41.30
40596;BME280;26304;48.794;9.820;2023-03-22T21:38:48;95798.94;;;19.08;41.11
40596;BME280;26304;48.794;9.820;2023-03-22T21:44:36;95792.19;;;19.07;41.50
40596;BME280;26304;48.794;9.820;2023-03-22T21:50:19;95798.22;;;19.08;41.31
40596;BME280;26304;48.794;9.820;2023-03-22T21:56:02;95795.97;;;19.06;41.34
40596;BME280;26304;48.794;9.820;2023-03-22T22:01:46;95796.34;;;19.04;41.56
40596;BME280;26304;48.794;9.820;2023-03-22T22:07:31;95801.63;;;19.04;41.71
40596;BME280;26304;48.794;9.820;2023-03-22T22:13:13;95805.78;;;19.02;41.97
40596;BME280;26304;48.794;9.820;2023-03-22T22:18:57;95803.53;;;19.00;41.78
40596;BME280;26304;48.794;9.820;2023-03-22T22:24:40;95802.78;;;19.00;42.00
40596;BME280;26304;48.794;9.820;2023-03-22T22:30:22;95802.78;;;19.00;42.27
40596;BME280;26304;48.794;9.820;2023-03-22T22:36:07;95816.31;;;18.98;42.33
40596;BME280;26304;48.794;9.820;2023-03-22T22:41:50;95811.06;;;18.98;42.40
40596;BME280;26304;48.794;9.820;2023-03-22T22:47:33;95815.22;;;18.96;42.31
40596;BME280;26304;48.794;9.820;2023-03-22T22:53:16;95819.72;;;18.95;42.70
40596;BME280;26304;48.794;9.820;2023-03-22T22:58:59;95817.88;;;18.96;42.67
40596;BME280;26304;48.794;9.820;2023-03-22T23:04:41;95810.34;;;18.94;42.69
40596;BME280;26304;48.794;9.820;2023-03-22T23:10:25;95819.38;;;18.93;42.67
40596;BME280;26304;48.794;9.820;2023-03-22T23:16:09;95814.09;;;18.93;42.81
40596;BME280;26304;48.794;9.820;2023-03-22T23:21:53;95806.59;;;18.92;42.62
40596;BME280;26304;48.794;9.820;2023-03-22T23:27:42;95806.59;;;18.92;42.78
40596;BME280;26304;48.794;9.820;2023-03-22T23:33:24;95816.38;;;18.91;43.07
40596;BME280;26304;48.794;9.820;2023-03-22T23:39:07;95802.06;;;18.92;42.92
40596;BME280;26304;48.794;9.820;2023-03-22T23:44:50;95753.97;;;18.84;43.45
40596;BME280;26304;48.794;9.820;2023-03-22T23:50:33;95805.88;;;18.87;43.46
40596;BME280;26304;48.794;9.820;2023-03-22T23:56:18;95814.91;;;18.86;43.34
